Time;durP1;ratioP1;P1;durP2;ratioP2;P2;SDS_P1;SDS_P2;PMS_P1;PMS_P2;Temp;Humidity;BMP_temperature;BMP_pressure;BME280_temperature;BME280_humidity;BME280_pressure;Samples;Min_cycle;Max_cycle;Signal;HPM_P1;HPM_P2
2022/07/14 00:00:53;;;;;;;6.63;0.90;;;16.40;99.90;;;;;;4972467;28;20054;-85
2022/07/14 00:03:20;;;;;;;8.55;1.10;;;16.40;99.90;;;;;;4961225;28;20049;-82
2022/07/14 00:05:47;;;;;;;6.90;1.60;;;16.40;99.90;;;;;;4961834;28;20052;-81
2022/07/14 00:08:13;;;;;;;7.40;1.10;;;16.40;99.90;;;;;;4979159;28;20049;-81
2022/07/14 00:10:40;;;;;;;7.22;1.10;;;16.30;99.90;;;;;;4945270;28;20064;-82
2022/07/14 00:13:08;;;;;;;9.68;1.35;;;16.30;99.90;;;;;;4969854;28;20061;-81
2022/07/14 00:15:35;;;;;;;10.05;1.35;;;16.20;99.90;;;;;;4974868;28;20053;-82
2022/07/14 00:18:02;;;;;;;7.22;1.10;;;16.20;99.90;;;;;;4959085;28;20037;-82
2022/07/14 00:20:29;;;;;;;8.55;1.40;;;16.10;99.90;;;;;;4996104;28;20046;-83
2022/07/14 00:23:10;;;;;;;5.85;1.13;;;16.00;99.90;;;;;;4985204;28;20041;-84
2022/07/14 00:25:37;;;;;;;9.07;1.20;;;15.90;99.90;;;;;;4949911;28;20053;-83
2022/07/14 00:28:06;;;;;;;8.35;1.63;;;15.80;99.90;;;;;;4981211;28;20041;-83
2022/07/14 00:30:33;;;;;;;6.13;1.25;;;15.80;99.90;;;;;;4956651;28;20057;-83
2022/07/14 00:33:00;;;;;;;6.22;1.05;;;15.70;99.90;;;;;;4981287;28;20515;-83
2022/07/14 00:35:26;;;;;;;9.07;1.80;;;15.60;99.90;;;;;;4963908;28;20510;-81
2022/07/14 00:37:53;;;;;;;7.45;1.20;;;15.60;99.90;;;;;;4991236;28;20034;-81
2022/07/14 00:40:20;;;;;;;9.27;1.23;;;15.50;99.90;;;;;;4975079;28;20045;-81
2022/07/14 00:42:48;;;;;;;6.38;1.00;;;15.50;99.90;;;;;;4974360;28;20049;-81
2022/07/14 00:45:17;;;;;;;9.00;1.23;;;15.50;99.90;;;;;;4975642;28;20375;-82
2022/07/14 00:47:46;;;;;;;9.23;1.55;;;15.50;99.90;;;;;;4958458;28;20045;-82
2022/07/14 00:50:15;;;;;;;8.07;1.38;;;15.60;99.90;;;;;;4993408;28;20409;-81
2022/07/14 00:52:43;;;;;;;5.10;0.80;;;15.60;99.90;;;;;;4957684;28;20037;-81
2022/07/14 00:55:12;;;;;;;8.45;1.35;;;15.60;99.90;;;;;;4973646;28;20057;-81
2022/07/14 00:57:40;;;;;;;6.93;1.00;;;15.70;99.90;;;;;;4980673;28;20056;-81
2022/07/14 01:00:26;;;;;;;4.00;0.80;;;15.70;99.90;;;;;;4982200;28;20382;-80
2022/07/14 01:02:57;;;;;;;4.80;0.93;;;15.60;99.90;;;;;;4978008;28;20064;-81
2022/07/14 01:05:24;;;;;;;10.38;1.20;;;15.60;99.90;;;;;;4994553;28;20605;-81
2022/07/14 01:07:56;;;;;;;5.72;0.95;;;15.70;99.90;;;;;;4955733;28;20060;-80
2022/07/14 01:10:27;;;;;;;5.80;0.80;;;15.60;99.90;;;;;;4978655;28;20432;-80
2022/07/14 01:12:59;;;;;;;7.72;1.10;;;15.70;99.90;;;;;;4963017;28;20037;-81
2022/07/14 01:15:26;;;;;;;6.13;1.23;;;15.70;99.90;;;;;;4979311;28;20667;-81
2022/07/14 01:17:56;;;;;;;8.07;1.17;;;15.70;99.90;;;;;;4995536;28;20056;-81
2022/07/14 01:20:26;;;;;;;10.45;1.45;;;15.70;99.90;;;;;;4979003;28;20053;-81
2022/07/14 01:22:56;;;;;;;6.75;0.88;;;15.60;99.90;;;;;;4962980;28;20033;-81
2022/07/14 01:25:27;;;;;;;7.57;1.67;;;15.60;99.90;;;;;;4979554;28;20637;-80
2022/07/14 01:28:02;;;;;;;6.38;1.10;;;15.60;99.90;;;;;;4978171;28;20057;-80
2022/07/14 01:30:33;;;;;;;7.30;1.20;;;15.60;99.90;;;;;;4995587;28;20046;-80
2022/07/14 01:33:03;;;;;;;6.20;0.90;;;15.50;99.90;;;;;;4998058;28;20053;-80
2022/07/14 01:35:30;;;;;;;7.32;1.40;;;15.50;99.90;;;;;;4980319;28;20060;-81
2022/07/14 01:37:58;;;;;;;8.23;1.10;;;15.50;99.90;;;;;;4998744;28;20846;-80
2022/07/14 01:40:28;;;;;;;12.00;1.15;;;15.40;99.90;;;;;;4987044;28;20064;-81
2022/07/14 01:42:58;;;;;;;6.35;1.10;;;15.40;99.90;;;;;;4963916;28;20129;-81
2022/07/14 01:45:49;;;;;;;6.25;0.90;;;15.30;99.90;;;;;;5002875;28;20056;-81
2022/07/14 01:48:28;;;;;;;6.47;0.85;;;15.20;99.90;;;;;;4976626;28;21119;-81
2022/07/14 01:51:19;;;;;;;8.27;1.25;;;15.20;99.90;;;;;;4957770;28;20049;-81
2022/07/14 01:53:57;;;;;;;7.07;1.20;;;15.20;99.90;;;;;;4983684;28;20565;-81
2022/07/14 01:56:23;;;;;;;6.82;1.27;;;15.20;99.90;;;;;;4975681;28;20050;-80
2022/07/14 01:58:52;;;;;;;4.60;0.70;;;15.10;99.90;;;;;;4955943;28;20093;-81
2022/07/14 02:04:06;;;;;;;8.73;1.17;;;15.10;99.90;;;;;;4943823;28;20057;-80
2022/07/14 02:06:33;;;;;;;4.18;0.60;;;15.00;99.90;;;;;;4972842;28;20053;-81
2022/07/14 02:09:00;;;;;;;5.55;0.85;;;15.00;99.90;;;;;;4951850;28;20061;-81
2022/07/14 02:14:18;;;;;;;5.75;1.05;;;15.00;99.90;;;;;;4973519;28;20044;-80
2022/07/14 02:16:45;;;;;;;8.43;1.35;;;15.00;99.90;;;;;;4974312;28;20053;-81
2022/07/14 02:19:14;;;;;;;6.15;0.95;;;14.90;99.90;;;;;;4947811;28;20046;-81
2022/07/14 02:21:41;;;;;;;5.93;0.93;;;14.90;99.90;;;;;;4975491;28;20045;-81
2022/07/14 02:24:09;;;;;;;7.72;1.00;;;14.90;99.90;;;;;;4976260;28;20787;-81
2022/07/14 02:26:38;;;;;;;6.75;1.08;;;14.80;99.90;;;;;;4968858;28;20412;-81
2022/07/14 02:29:05;;;;;;;8.05;1.38;;;14.80;99.90;;;;;;4976539;28;20038;-81
2022/07/14 02:31:34;;;;;;;8.07;1.20;;;14.80;99.90;;;;;;4976940;28;20687;-81
2022/07/14 02:34:03;;;;;;;8.02;1.33;;;14.80;99.90;;;;;;4977504;28;21018;-81
2022/07/14 02:36:30;;;;;;;11.52;1.52;;;14.80;99.90;;;;;;5001174;28;20033;-81
2022/07/14 02:38:57;;;;;;;7.95;1.38;;;14.70;99.90;;;;;;4974275;28;20087;-80
2022/07/14 02:41:24;;;;;;;6.78;1.02;;;14.70;99.90;;;;;;4972378;28;20041;-81
2022/07/14 02:43:50;;;;;;;4.80;0.93;;;14.70;99.90;;;;;;4994173;28;20048;-81
2022/07/14 02:46:19;;;;;;;7.88;1.10;;;14.70;99.90;;;;;;4961290;28;21188;-81
2022/07/14 02:48:48;;;;;;;5.28;0.80;;;14.60;99.90;;;;;;4958768;28;20045;-81
2022/07/14 02:51:15;;;;;;;10.18;1.20;;;14.60;99.90;;;;;;4967202;28;20478;-81
2022/07/14 02:53:42;;;;;;;6.35;1.00;;;14.60;99.90;;;;;;4975167;28;20507;-81
2022/07/14 02:56:09;;;;;;;6.40;1.35;;;14.50;99.90;;;;;;4969443;28;20041;-81
2022/07/14 02:58:45;;;;;;;7.93;1.10;;;14.50;99.90;;;;;;4998387;28;20508;-81
2022/07/14 03:01:24;;;;;;;9.90;1.75;;;14.50;99.90;;;;;;4966433;28;20041;-80
2022/07/14 03:04:21;;;;;;;7.65;1.10;;;14.40;99.90;;;;;;4988189;28;20539;-81
2022/07/14 03:07:29;;;;;;;8.20;1.08;;;14.40;99.90;;;;;;4962669;28;20068;-81
2022/07/14 03:10:09;;;;;;;11.25;1.42;;;14.40;99.90;;;;;;4986225;28;21693;-81
2022/07/14 03:13:08;;;;;;;;;;;14.30;99.90;;;;;;4971778;28;20054;-81
2022/07/14 03:15:38;;;;;;;8.80;1.58;;;14.30;99.90;;;;;;4979834;28;19921;-81
2022/07/14 03:18:12;;;;;;;7.28;0.90;;;14.20;99.90;;;;;;4996414;28;20056;-86
2022/07/14 03:20:42;;;;;;;6.35;1.00;;;14.20;99.90;;;;;;4953907;28;20133;-80
2022/07/14 03:23:34;;;;;;;8.15;1.30;;;14.20;99.90;;;;;;4964470;28;20033;-81
2022/07/14 03:26:22;;;;;;;5.53;0.93;;;14.20;99.90;;;;;;4982111;28;20079;-87
2022/07/14 03:28:58;;;;;;;7.32;1.17;;;14.10;99.90;;;;;;4978047;28;20421;-81
2022/07/14 03:31:28;;;;;;;5.30;0.80;;;14.10;99.90;;;;;;4983793;28;20046;-88
2022/07/14 03:34:03;;;;;;;4.70;0.80;;;14.20;99.90;;;;;;4969767;28;20057;-87
2022/07/14 03:36:40;;;;;;;9.82;1.10;;;14.20;99.90;;;;;;4983885;28;20053;-81
2022/07/14 03:39:22;;;;;;;6.72;1.00;;;14.10;99.90;;;;;;4987138;28;20531;-88
2022/07/14 03:41:50;;;;;;;8.48;1.05;;;14.10;99.90;;;;;;4962258;28;20069;-88
2022/07/14 03:44:19;;;;;;;8.38;1.00;;;14.10;99.90;;;;;;4961998;28;20053;-88
2022/07/14 03:46:53;;;;;;;9.45;1.63;;;14.10;99.90;;;;;;4978484;28;20056;-81
2022/07/14 03:49:22;;;;;;;7.88;1.00;;;14.10;99.90;;;;;;4981338;28;20129;-88
2022/07/14 03:51:52;;;;;;;10.02;1.48;;;14.00;99.90;;;;;;4960228;28;20088;-88
2022/07/14 03:54:26;;;;;;;7.28;1.13;;;14.10;99.90;;;;;;4966012;28;20053;-88
2022/07/14 03:56:52;;;;;;;7.40;0.98;;;14.00;99.90;;;;;;4945182;28;20049;-87
2022/07/14 03:59:21;;;;;;;7.22;1.40;;;14.00;99.90;;;;;;4941870;28;20049;-81
2022/07/14 04:01:48;;;;;;;6.22;1.58;;;14.00;99.90;;;;;;4944049;28;20060;-88
2022/07/14 04:04:15;;;;;;;6.43;0.90;;;14.00;99.90;;;;;;4963045;28;20048;-88
2022/07/14 04:06:43;;;;;;;9.60;1.10;;;14.00;99.90;;;;;;4948146;28;20052;-87
2022/07/14 04:09:09;;;;;;;7.40;1.17;;;14.00;99.90;;;;;;4947073;28;20045;-88
2022/07/14 04:11:41;;;;;;;6.57;0.98;;;14.00;99.90;;;;;;4933804;28;20048;-81
2022/07/14 04:14:07;;;;;;;8.30;0.90;;;14.00;99.90;;;;;;4958560;28;20432;-81
2022/07/14 04:16:39;;;;;;;6.90;0.88;;;14.00;99.90;;;;;;4975589;28;20632;-81
2022/07/14 04:19:07;;;;;;;9.35;1.13;;;14.10;99.90;;;;;;4968845;28;20049;-88
2022/07/14 04:21:37;;;;;;;5.38;0.85;;;14.10;99.90;;;;;;4962088;28;20575;-88
2022/07/14 04:24:04;;;;;;;4.85;0.88;;;14.10;99.90;;;;;;4966380;28;20045;-87
2022/07/14 04:26:32;;;;;;;9.70;1.27;;;14.20;99.90;;;;;;4981461;28;20057;-81
2022/07/14 04:29:03;;;;;;;9.70;0.90;;;14.30;99.90;;;;;;4975409;28;20057;-80
2022/07/14 04:31:33;;;;;;;9.68;1.20;;;14.30;99.90;;;;;;4959197;28;20041;-81
2022/07/14 04:34:00;;;;;;;5.78;1.00;;;14.40;99.90;;;;;;4969794;28;20045;-81
2022/07/14 04:36:30;;;;;;;9.40;1.00;;;14.40;99.90;;;;;;4962237;28;20071;-81
2022/07/14 04:38:57;;;;;;;4.75;0.77;;;14.50;99.90;;;;;;4997633;28;20041;-80
2022/07/14 04:41:26;;;;;;;5.53;1.27;;;14.60;99.90;;;;;;4994442;28;20049;-87
2022/07/14 04:43:55;;;;;;;6.22;1.08;;;14.70;99.90;;;;;;4979209;28;20037;-81
2022/07/14 04:46:23;;;;;;;8.23;1.23;;;14.80;99.90;;;;;;4960179;28;20050;-88
2022/07/14 04:52:03;;;;;;;8.40;0.90;;;15.00;99.90;;;;;;4983767;28;20481;-88
2022/07/14 04:54:36;;;;;;;7.03;0.85;;;15.20;99.90;;;;;;4965846;28;20042;-88
2022/07/14 04:57:26;;;;;;;6.93;0.80;;;15.30;99.90;;;;;;5001102;28;20041;-86
2022/07/14 04:59:52;;;;;;;6.78;0.75;;;15.40;99.90;;;;;;4975794;28;20049;-87
2022/07/14 05:02:29;;;;;;;5.93;0.90;;;15.60;99.90;;;;;;4986286;28;20064;-84
2022/07/14 05:04:57;;;;;;;9.05;1.00;;;15.70;99.90;;;;;;4973631;28;20052;-88
2022/07/14 05:07:25;;;;;;;5.97;1.20;;;15.90;99.90;;;;;;5004478;28;20034;-84
2022/07/14 05:09:57;;;;;;;8.30;1.42;;;16.00;99.90;;;;;;4967029;28;20053;-86
2022/07/14 05:12:27;;;;;;;8.48;1.88;;;16.10;99.90;;;;;;4968982;28;20045;-86
2022/07/14 05:15:01;;;;;;;7.38;1.40;;;16.20;99.90;;;;;;4968345;28;20045;-87
2022/07/14 05:17:30;;;;;;;11.32;3.17;;;16.30;99.90;;;;;;4983709;28;20529;-82
2022/07/14 05:20:18;;;;;;;9.40;1.52;;;16.40;99.90;;;;;;4984845;28;20030;-87
2022/07/14 05:23:10;;;;;;;7.10;1.23;;;16.50;99.90;;;;;;4974666;28;20049;-86
2022/07/14 05:25:39;;;;;;;7.65;1.90;;;16.70;99.90;;;;;;4990764;28;20045;-87
2022/07/14 05:28:10;;;;;;;26.98;13.48;;;16.80;99.90;;;;;;4976232;28;20060;-83
2022/07/14 05:31:05;;;;;;;17.35;7.45;;;16.90;99.90;;;;;;4956152;28;20056;-87
2022/07/14 05:34:08;;;;;;;8.15;2.17;;;17.00;99.90;;;;;;4996929;28;20053;-89
2022/07/14 05:36:56;;;;;;;7.72;1.08;;;17.20;99.90;;;;;;4993125;28;20049;-88
2022/07/14 05:39:24;;;;;;;12.75;3.42;;;17.30;99.90;;;;;;4965449;28;20623;-85
2022/07/14 05:41:53;;;;;;;8.43;1.50;;;17.50;99.90;;;;;;4977465;28;20049;-87
2022/07/14 05:44:25;;;;;;;6.57;1.52;;;17.70;99.90;;;;;;4990753;28;20045;-87
2022/07/14 05:46:55;;;;;;;10.43;0.82;;;17.80;99.90;;;;;;4959500;28;20042;-87
2022/07/14 05:49:35;;;;;;;6.85;0.90;;;17.90;99.90;;;;;;4976800;28;20049;-87
2022/07/14 05:52:15;;;;;;;7.85;1.15;;;18.00;99.90;;;;;;4968744;28;20037;-87
2022/07/14 05:55:00;;;;;;;9.82;1.52;;;18.20;99.90;;;;;;4968276;28;20037;-86
2022/07/14 05:57:36;;;;;;;9.90;1.20;;;18.30;99.90;;;;;;4985292;28;20041;-85
2022/07/14 06:00:06;;;;;;;7.28;1.00;;;18.40;99.90;;;;;;4985984;28;20046;-86
2022/07/14 06:02:42;;;;;;;6.45;0.88;;;18.50;99.90;;;;;;4973220;28;21419;-80
2022/07/14 06:05:16;;;;;;;11.25;1.00;;;18.70;99.90;;;;;;4987561;28;20034;-87
2022/07/14 06:07:49;;;;;;;6.82;0.80;;;18.80;99.90;;;;;;4968564;28;20042;-87
2022/07/14 06:10:17;;;;;;;6.50;0.80;;;18.90;99.90;;;;;;4975747;28;20064;-87
2022/07/14 06:12:48;;;;;;;8.15;1.10;;;19.10;99.90;;;;;;4962942;28;20049;-87
2022/07/14 06:15:15;;;;;;;7.22;0.75;;;19.30;99.90;;;;;;5002601;28;20057;-87
2022/07/14 06:17:47;;;;;;;10.35;1.08;;;19.50;99.90;;;;;;4954219;28;20408;-87
2022/07/14 06:20:14;;;;;;;5.40;0.90;;;19.80;99.90;;;;;;5003981;28;20052;-86
2022/07/14 06:22:43;;;;;;;15.25;1.38;;;20.00;99.90;;;;;;5003679;28;21091;-86
2022/07/14 06:25:11;;;;;;;5.65;0.68;;;20.40;99.90;;;;;;4968578;28;20046;-81
2022/07/14 06:27:40;;;;;;;6.75;0.85;;;20.80;99.90;;;;;;4969994;28;20073;-86
2022/07/14 06:30:13;;;;;;;7.30;1.10;;;21.10;99.90;;;;;;4988978;28;20045;-87
2022/07/14 06:32:41;;;;;;;6.03;0.98;;;21.10;99.90;;;;;;4976922;28;20046;-82
2022/07/14 06:35:16;;;;;;;7.72;0.85;;;21.20;99.90;;;;;;4983828;28;20041;-81
2022/07/14 06:38:12;;;;;;;6.63;0.60;;;21.10;99.90;;;;;;4998179;28;20041;-81
2022/07/14 06:40:42;;;;;;;8.02;1.30;;;21.00;99.90;;;;;;4982744;28;20049;-82
2022/07/14 06:43:19;;;;;;;4.20;0.60;;;21.00;99.60;;;;;;4982095;28;20037;-81
2022/07/14 06:45:53;;;;;;;6.05;0.80;;;20.90;99.60;;;;;;4966563;28;20057;-81
2022/07/14 06:48:22;;;;;;;7.10;0.82;;;20.90;99.60;;;;;;4965741;28;20051;-82
2022/07/14 06:51:03;;;;;;;5.13;1.00;;;21.00;99.10;;;;;;4997853;28;20037;-81
2022/07/14 06:53:34;;;;;;;;;;;21.20;98.80;;;;;;4999861;28;20034;-86
2022/07/14 06:56:17;;;;;;;6.20;0.70;;;21.30;98.60;;;;;;4985286;28;19924;-86
2022/07/14 06:59:06;;;;;;;6.00;0.63;;;21.20;98.30;;;;;;4999862;28;20041;-87
2022/07/14 07:01:39;;;;;;;2.55;0.60;;;21.30;98.30;;;;;;5001187;28;20038;-87
2022/07/14 07:04:10;;;;;;;5.43;0.93;;;21.30;98.20;;;;;;4957944;28;20057;-86
2022/07/14 07:06:53;;;;;;;4.15;0.63;;;21.30;98.00;;;;;;5000676;28;20084;-86
2022/07/14 07:09:44;;;;;;;6.80;0.98;;;21.50;97.60;;;;;;4984722;28;20049;-87
2022/07/14 07:12:16;;;;;;;5.72;0.88;;;21.50;97.40;;;;;;4984928;28;20048;-85
2022/07/14 07:15:09;;;;;;;5.63;0.60;;;21.60;97.10;;;;;;5003356;28;20516;-87
2022/07/14 07:17:44;;;;;;;4.85;0.60;;;21.60;97.00;;;;;;5011853;28;20679;-87
2022/07/14 07:21:00;;;;;;;5.05;0.75;;;21.70;96.80;;;;;;5016795;28;20041;-88
2022/07/14 07:23:46;;;;;;;6.95;1.23;;;21.80;96.40;;;;;;4998286;28;20049;-87
2022/07/14 07:26:32;;;;;;;2.88;0.50;;;21.80;96.10;;;;;;5010105;28;20052;-84
2022/07/14 07:29:52;;;;;;;5.13;0.50;;;21.90;95.90;;;;;;4957489;28;20042;-83
2022/07/14 07:33:27;;;;;;;2.90;0.50;;;21.90;95.50;;;;;;4980237;28;20046;-86
2022/07/14 07:36:18;;;;;;;4.70;0.50;;;22.00;95.40;;;;;;4975089;28;20062;-85
2022/07/14 07:39:14;;;;;;;4.18;0.90;;;22.10;95.20;;;;;;4975025;28;21346;-85
2022/07/14 07:42:03;;;;;;;4.22;1.20;;;22.20;94.90;;;;;;4921129;28;20041;-84
2022/07/14 07:44:32;;;;;;;4.93;0.98;;;22.40;94.70;;;;;;4927015;28;20053;-85
2022/07/14 07:47:38;;;;;;;5.07;1.00;;;22.50;94.40;;;;;;4959183;28;20531;-87
2022/07/14 07:50:43;;;;;;;4.22;0.60;;;22.60;94.20;;;;;;4946216;28;20097;-88
2022/07/14 07:54:10;;;;;;;5.40;1.48;;;22.80;93.80;;;;;;4944418;28;20055;-89
2022/07/14 07:56:52;;;;;;;3.90;0.98;;;22.90;93.30;;;;;;4941275;28;20054;-89
2022/07/14 08:00:05;;;;;;;;;;;22.90;93.20;;;;;;4892668;28;20408;-88
2022/07/14 08:03:04;;;;;;;3.90;0.65;;;23.10;93.10;;;;;;4939875;28;19918;-87
2022/07/14 08:06:00;;;;;;;3.55;0.90;;;23.20;92.90;;;;;;4925153;28;20054;-86
2022/07/14 08:08:31;;;;;;;4.97;0.60;;;23.40;92.40;;;;;;4956879;28;20046;-87
2022/07/14 08:11:08;;;;;;;3.80;0.70;;;23.40;92.00;;;;;;4908093;28;20070;-88
2022/07/14 08:17:32;;;;;;;3.53;0.65;;;23.50;91.70;;;;;;4999836;28;20071;-89
2022/07/14 08:20:26;;;;;;;2.92;0.70;;;23.60;91.20;;;;;;4975376;28;20057;-89
2022/07/14 08:22:57;;;;;;;2.40;0.45;;;23.70;91.00;;;;;;4986354;28;20049;-87
2022/07/14 08:25:39;;;;;;;4.78;0.80;;;23.70;90.60;;;;;;4973856;28;20057;-87
2022/07/14 08:28:13;;;;;;;4.03;0.55;;;23.70;90.00;;;;;;4980894;28;20041;-89
2022/07/14 08:30:44;;;;;;;5.40;0.57;;;23.70;90.30;;;;;;4963752;28;20046;-88
2022/07/14 08:33:20;;;;;;;3.75;0.82;;;23.80;90.40;;;;;;4966420;28;20060;-89
2022/07/14 08:36:05;;;;;;;3.58;0.75;;;24.10;90.10;;;;;;4967038;28;21500;-89
2022/07/14 08:38:44;;;;;;;2.38;0.52;;;24.30;89.40;;;;;;4981358;28;20481;-88
2022/07/14 08:41:13;;;;;;;3.67;0.50;;;24.40;88.90;;;;;;4981377;28;20041;-88
2022/07/14 08:43:40;;;;;;;3.33;0.55;;;24.50;88.00;;;;;;4964956;28;20064;-88
2022/07/14 08:46:09;;;;;;;3.85;0.50;;;24.70;87.40;;;;;;4981643;28;20507;-89
2022/07/14 08:48:38;;;;;;;2.50;0.50;;;24.80;86.80;;;;;;4965196;28;20045;-81
2022/07/14 08:51:11;;;;;;;3.20;0.45;;;25.00;86.70;;;;;;4984115;28;20060;-85
2022/07/14 08:53:38;;;;;;;4.82;0.60;;;25.00;84.50;;;;;;4982712;28;20061;-86
2022/07/14 08:56:06;;;;;;;4.50;0.85;;;25.00;84.20;;;;;;5000183;28;20029;-84
2022/07/14 08:58:34;;;;;;;2.67;0.50;;;25.10;84.00;;;;;;4952741;28;20416;-84
2022/07/14 09:01:06;;;;;;;2.70;0.40;;;25.20;83.30;;;;;;4984039;28;20045;-84
2022/07/14 09:03:40;;;;;;;3.42;0.40;;;25.30;82.50;;;;;;4998829;28;20481;-83
2022/07/14 09:06:11;;;;;;;3.00;0.40;;;25.30;82.50;;;;;;4998156;28;20508;-84
2022/07/14 09:09:19;;;;;;;2.55;0.50;;;25.60;82.00;;;;;;4997809;28;20052;-80
2022/07/14 09:12:10;;;;;;;3.28;0.57;;;25.70;81.10;;;;;;4986185;28;20033;-79
2022/07/14 09:18:12;;;;;;;1.17;0.30;;;25.90;80.00;;;;;;5000743;28;20072;-80
2022/07/14 09:20:43;;;;;;;2.92;0.45;;;26.00;80.30;;;;;;4984550;28;20045;-80
2022/07/14 09:23:33;;;;;;;4.50;0.50;;;26.20;78.50;;;;;;5001190;28;20413;-80
2022/07/14 09:26:25;;;;;;;3.45;0.70;;;26.30;76.90;;;;;;4984688;28;20390;-79
2022/07/14 09:28:59;;;;;;;2.70;0.43;;;26.20;76.30;;;;;;4998123;28;20057;-80
2022/07/14 09:31:32;;;;;;;1.05;0.40;;;26.30;76.40;;;;;;4999339;28;20041;-79
2022/07/14 09:34:31;;;;;;;2.13;0.40;;;26.50;76.60;;;;;;4999345;28;20033;-79
2022/07/14 09:37:19;;;;;;;2.03;0.38;;;26.60;74.30;;;;;;4982087;28;20048;-80
2022/07/14 09:39:59;;;;;;;4.80;0.30;;;26.70;74.40;;;;;;4997726;28;20053;-80
2022/07/14 09:42:57;;;;;;;3.92;0.47;;;26.90;73.50;;;;;;4998199;28;20053;-79
2022/07/14 09:45:26;;;;;;;2.72;0.40;;;27.10;72.50;;;;;;4998443;28;20044;-80
2022/07/14 09:48:11;;;;;;;2.25;0.50;;;27.30;72.20;;;;;;4999368;28;20056;-80
2022/07/14 09:51:01;;;;;;;3.28;0.40;;;27.40;71.00;;;;;;4989731;28;20041;-80
2022/07/14 09:53:58;;;;;;;1.83;0.30;;;27.20;69.80;;;;;;4998915;28;20037;-80
2022/07/14 09:56:50;;;;;;;1.98;0.40;;;27.10;70.80;;;;;;5001913;28;20041;-81
2022/07/14 09:59:18;;;;;;;2.65;0.40;;;27.10;70.10;;;;;;5002263;28;20046;-80
2022/07/14 10:01:44;;;;;;;1.70;0.40;;;26.90;70.30;;;;;;5006589;28;20044;-80
2022/07/14 10:04:11;;;;;;;4.15;0.50;;;26.90;69.80;;;;;;4992578;28;20048;-81
2022/07/14 10:06:38;;;;;;;2.22;0.35;;;26.90;68.50;;;;;;4979629;28;20052;-81
2022/07/14 10:09:08;;;;;;;2.42;0.30;;;26.90;68.30;;;;;;4968108;28;20048;-81
2022/07/14 10:11:34;;;;;;;3.20;0.30;;;26.90;68.90;;;;;;4983487;28;20125;-80
2022/07/14 10:14:01;;;;;;;1.38;0.30;;;27.20;67.20;;;;;;5000221;28;20041;-81
2022/07/14 10:16:32;;;;;;;1.80;0.38;;;27.50;65.50;;;;;;4983386;28;20064;-80
2022/07/14 10:19:00;;;;;;;1.73;0.25;;;27.60;65.00;;;;;;4999430;28;20729;-80
2022/07/14 10:21:27;;;;;;;2.25;0.30;;;27.80;65.00;;;;;;4996780;28;20052;-80
2022/07/14 10:23:55;;;;;;;2.15;0.47;;;27.90;64.20;;;;;;4998849;28;20049;-81
2022/07/14 10:26:21;;;;;;;1.23;0.35;;;27.90;64.50;;;;;;4966917;28;20542;-80
2022/07/14 10:28:48;;;;;;;1.52;0.38;;;28.10;63.60;;;;;;4999038;28;20062;-80
2022/07/14 10:31:37;;;;;;;1.63;0.32;;;28.30;62.60;;;;;;4982618;28;20045;-80
2022/07/14 10:34:18;;;;;;;3.20;0.40;;;28.50;61.60;;;;;;4999276;28;20041;-81
2022/07/14 10:36:56;;;;;;;2.40;0.30;;;28.40;60.70;;;;;;4999464;28;20101;-80
2022/07/14 10:39:35;;;;;;;1.95;0.40;;;28.30;61.00;;;;;;4984325;28;20048;-81
2022/07/14 10:42:13;;;;;;;1.35;0.40;;;28.40;60.40;;;;;;4966038;28;20386;-81
2022/07/14 10:44:45;;;;;;;1.98;0.40;;;28.60;60.30;;;;;;5001643;28;20511;-80
2022/07/14 10:47:20;;;;;;;1.42;0.30;;;28.80;60.30;;;;;;5001171;28;20029;-80
2022/07/14 10:50:09;;;;;;;1.65;0.32;;;29.20;59.10;;;;;;4985373;28;20040;-87
2022/07/14 10:52:54;;;;;;;2.53;0.40;;;29.40;58.60;;;;;;4969844;28;20627;-87
2022/07/14 10:55:29;;;;;;;2.20;0.40;;;29.50;57.80;;;;;;5001738;28;20045;-87
2022/07/14 10:58:10;;;;;;;1.20;0.30;;;29.30;57.40;;;;;;4985984;28;20048;-88
2022/07/14 11:00:59;;;;;;;2.17;0.38;;;29.10;58.10;;;;;;4986399;28;20054;-88
2022/07/14 11:03:56;;;;;;;1.30;0.40;;;29.10;57.50;;;;;;5002313;28;20681;-88
2022/07/14 11:06:45;;;;;;;2.45;0.50;;;29.20;56.80;;;;;;4983286;28;20049;-87
2022/07/14 11:09:31;;;;;;;1.38;0.40;;;29.20;56.70;;;;;;4970252;28;21007;-88
2022/07/14 11:12:18;;;;;;;2.00;0.50;;;29.20;56.80;;;;;;4984778;28;20174;-89
2022/07/14 11:14:52;;;;;;;1.85;0.30;;;29.10;56.80;;;;;;4969591;28;20044;-89
2022/07/14 11:17:40;;;;;;;1.67;0.50;;;29.30;56.50;;;;;;4955077;28;20060;-87
2022/07/14 11:20:28;;;;;;;;;;;;;;;;;;;;;
2022/07/14 11:23:15;;;;;;;1.90;0.30;;;29.90;55.20;;;;;;4980591;28;20041;-87
2022/07/14 11:25:43;;;;;;;1.27;0.28;;;29.90;54.50;;;;;;4952374;28;20041;-80
2022/07/14 11:29:24;;;;;;;;;;;;;;;;;;;;;
2022/07/14 11:31:56;;;;;;;1.65;0.70;;;29.90;54.10;;;;;;4997854;28;20050;-82
2022/07/14 11:37:58;;;;;;;5.15;0.68;;;29.70;54.20;;;;;;4963830;28;20038;-80
2022/07/14 11:40:51;;;;;;;1.98;0.40;;;29.40;54.10;;;;;;4964306;28;20690;-81
2022/07/14 11:43:30;;;;;;;1.40;0.43;;;29.20;54.50;;;;;;4979706;28;20045;-82
2022/07/14 11:46:27;;;;;;;2.03;0.40;;;29.10;54.40;;;;;;4979423;28;20053;-81
2022/07/14 11:49:36;;;;;;;3.85;2.05;;;29.10;55.30;;;;;;4980224;28;20049;-81
2022/07/14 11:52:24;;;;;;;3.70;1.33;;;29.00;54.90;;;;;;4965100;28;20049;-83
2022/07/14 11:55:17;;;;;;;1.92;0.80;;;29.00;54.50;;;;;;4963620;28;20068;-85
2022/07/14 11:59:45;;;;;;;;;;;;;;;;;;;;;
2022/07/14 12:35:54;;;;;;;;;;;;;;;;;;;;;
2022/07/14 12:39:51;;;;;;;;;;;;;;;;;;;;;
2022/07/14 12:43:48;;;;;;;;;;;;;;;;;;;;;
2022/07/14 12:54:57;;;;;;;1.73;0.50;;;33.00;48.60;;;;;;4901218;29;20066;-87
2022/07/14 12:57:47;;;;;;;2.30;0.50;;;34.00;46.50;;;;;;4824494;29;20584;-84
2022/07/14 13:05:14;;;;;;;12.70;8.15;;;34.80;45.60;;;;;;4821146;29;20049;-86
2022/07/14 13:07:48;;;;;;;18.52;15.27;;;35.30;44.60;;;;;;4775949;29;20043;-89
2022/07/14 13:11:25;;;;;;;8.40;6.78;;;35.90;44.00;;;;;;4837378;29;20501;-87
2022/07/14 13:18:14;;;;;;;45.45;25.75;;;36.60;42.70;;;;;;4929113;28;20129;-87
2022/07/14 13:21:30;;;;;;;34.13;18.40;;;37.10;41.20;;;;;;4944051;28;20098;-84
2022/07/14 13:24:20;;;;;;;145.40;78.85;;;37.80;41.00;;;;;;4939087;28;20524;-89
2022/07/14 13:27:57;;;;;;;43.00;24.85;;;38.20;39.90;;;;;;4951648;28;20046;-87
2022/07/14 13:30:39;;;;;;;21.35;11.57;;;37.50;41.00;;;;;;4937743;28;20050;-85
2022/07/14 13:33:26;;;;;;;68.18;39.95;;;37.00;41.80;;;;;;4980717;28;20042;-87
2022/07/14 13:36:16;;;;;;;50.22;28.10;;;37.40;40.90;;;;;;4966452;28;20045;-85
2022/07/14 13:38:55;;;;;;;10.13;3.97;;;37.60;40.10;;;;;;4962637;28;20059;-86
2022/07/14 13:41:45;;;;;;;2.60;0.80;;;38.10;38.80;;;;;;4964366;28;20112;-86
2022/07/14 13:44:20;;;;;;;2.60;0.50;;;38.10;38.30;;;;;;4948513;28;20421;-85
2022/07/14 13:47:04;;;;;;;1.88;0.50;;;37.40;37.60;;;;;;4950462;28;20069;-81
2022/07/14 13:54:26;;;;;;;3.13;0.60;;;34.30;39.80;;;;;;4939962;28;20054;-82
2022/07/14 13:57:46;;;;;;;15.30;8.75;;;33.00;42.00;;;;;;4886154;29;20063;-85
2022/07/14 14:00:22;;;;;;;59.88;42.55;;;32.20;42.30;;;;;;4911448;29;20078;-87
2022/07/14 14:05:58;;;;;;;4.53;1.45;;;31.30;43.50;;;;;;4983586;28;20046;-85
2022/07/14 14:08:47;;;;;;;2.15;0.50;;;30.80;44.00;;;;;;5012362;28;20136;-85
2022/07/14 14:11:28;;;;;;;2.38;0.40;;;30.30;44.50;;;;;;5028925;28;20592;-83
2022/07/14 14:14:03;;;;;;;3.63;0.40;;;29.90;44.90;;;;;;5042960;28;20037;-83
2022/07/14 14:16:56;;;;;;;1.13;0.40;;;29.80;45.30;;;;;;5031049;28;20055;-85
2022/07/14 14:19:25;;;;;;;5.47;2.17;;;29.70;45.30;;;;;;5012541;28;20127;-84
2022/07/14 14:21:58;;;;;;;16.83;10.95;;;29.90;45.20;;;;;;5028053;28;20044;-84
2022/07/14 14:24:46;;;;;;;6.53;3.50;;;29.80;45.50;;;;;;4979371;28;20049;-84
2022/07/14 14:27:34;;;;;;;10.55;5.43;;;29.50;46.00;;;;;;4990992;28;20083;-84
2022/07/14 14:30:13;;;;;;;6.65;4.25;;;29.30;46.70;;;;;;4990312;28;20049;-84
2022/07/14 14:32:47;;;;;;;4.43;0.90;;;29.30;46.80;;;;;;4967858;28;20045;-84
2022/07/14 14:35:16;;;;;;;2.95;0.50;;;30.30;46.30;;;;;;4980686;28;20073;-81
2022/07/14 14:37:46;;;;;;;3.20;0.40;;;31.30;45.20;;;;;;4994062;28;20041;-81
2022/07/14 14:40:12;;;;;;;4.53;0.50;;;31.30;45.10;;;;;;4977540;28;20041;-81
2022/07/14 14:42:39;;;;;;;1.92;0.40;;;30.90;45.80;;;;;;4994516;28;20076;-82
2022/07/14 14:45:11;;;;;;;4.43;1.10;;;30.40;46.40;;;;;;4999527;28;21238;-80
2022/07/14 14:47:55;;;;;;;3.00;0.60;;;30.00;47.10;;;;;;4993710;28;20060;-81
2022/07/14 14:50:23;;;;;;;2.85;0.45;;;29.70;47.50;;;;;;4943877;28;20056;-82
2022/07/14 14:52:51;;;;;;;2.28;1.00;;;29.40;47.90;;;;;;4979086;28;20034;-84
2022/07/14 14:55:22;;;;;;;1.77;0.40;;;29.20;48.30;;;;;;4956343;28;20440;-86
2022/07/14 14:57:55;;;;;;;2.83;0.50;;;29.80;48.10;;;;;;5001296;28;20045;-86
2022/07/14 15:00:57;;;;;;;1.55;0.35;;;30.00;47.60;;;;;;4997842;28;20505;-83
2022/07/14 15:03:24;;;;;;;3.05;0.60;;;29.60;48.30;;;;;;4970875;28;20053;-84
2022/07/14 15:05:54;;;;;;;3.20;1.08;;;29.10;48.90;;;;;;4981145;28;20716;-84
2022/07/14 15:08:47;;;;;;;3.50;1.05;;;28.80;49.80;;;;;;4994523;28;20068;-83